Here is the Quick Look data you requested

The Data originates at the National Weather Service, and is made available here by the UAlbany Department of Atmospheric and Environmental Sciences

Surface Observations

KBID 230156Z AUTO 33016G26KT 10SM CLR M04/M19 A3029 RMK AO2 PK WND 33028/0139
 SLP260 T10441189 FZRANO=
KOQU 230150Z 34020G30KT 10SM SKC M04/M24 A3026=
KPVD 230151Z 33012G30KT 10SM CLR M05/M24 A3028 RMK AO2 PK WND 32031/0055 SLP255
 T10501244 $=
KSFZ 230156Z AUTO 32016G26KT 10SM CLR M07/M21 A3025 RMK AO2 PK WND 32032/0118
 SLPNO T10671211 FZRANO=
KUUU 230153Z AUTO 32018G29KT 10SM CLR M04/M20 A3026 RMK AO2 PK WND 32033/0101
 SLP245 T10441200=
KWST 230153Z AUTO 33013G22KT 10SM CLR M04/M23 A3030 RMK AO2 PK WND 34032/0104
 SLP260 T10391228=